Time;durP1;ratioP1;P1;durP2;ratioP2;P2;SDS_P1;SDS_P2;PMS_P1;PMS_P2;Temp;Humidity;BMP_temperature;BMP_pressure;BME280_temperature;BME280_humidity;BME280_pressure;Samples;Min_cycle;Max_cycle;Signal;HPM_P1;HPM_P2
2022/02/04 00:05:57;;;;;;;46.70;20.02;;;;;;;0.70;86.21;98963.11;4397982;78;21069;-89
2022/02/04 00:24:21;;;;;;;50.58;19.55;;;;;;;0.81;87.54;98953.64;4400851;79;21049;-90
2022/02/04 00:30:28;;;;;;;39.55;16.05;;;;;;;0.91;88.08;98970.31;4405504;78;21006;-90
2022/02/04 00:36:36;;;;;;;32.10;13.72;;;;;;;0.90;88.16;98966.04;4403978;78;21078;-91
2022/02/04 00:42:29;;;;;;;23.92;9.63;;;;;;;0.86;88.65;98955.63;4392402;78;21031;-91
2022/02/04 00:54:55;;;;;;;21.25;10.05;;;;;;;0.90;89.55;98943.13;4388475;79;21720;-91
2022/02/04 01:32:01;;;;;;;15.72;5.92;;;;;;;1.34;94.07;98876.83;4288056;80;21091;-91
2022/02/04 01:38:06;;;;;;;12.93;5.80;;;;;;;1.34;93.48;98855.25;4335009;80;21472;-91
2022/02/04 01:44:26;;;;;;;16.27;6.87;;;;;;;1.37;95.44;98833.59;4296922;80;21070;-91
2022/02/04 01:50:30;;;;;;;20.30;7.17;;;;;;;1.40;96.14;98814.06;4246815;82;21062;-91
2022/02/04 01:56:32;;;;;;;15.25;6.05;;;;;;;1.37;95.48;98802.03;4338136;80;21028;-91
2022/02/04 02:02:34;;;;;;;11.22;5.42;;;;;;;1.37;94.95;98789.89;4319552;79;22111;-90
2022/02/04 02:08:35;;;;;;;11.85;5.30;;;;;;;1.34;94.54;98788.38;4337630;80;21074;-91
2022/02/04 02:14:38;;;;;;;13.72;6.42;;;;;;;1.33;94.21;98779.48;4349965;80;21081;-90
2022/02/04 02:33:43;;;;;;;20.20;9.50;;;;;;;1.28;94.23;98774.83;4342720;79;21064;-91
2022/02/04 02:40:06;;;;;;;21.93;9.28;;;;;;;1.25;94.54;98774.89;4331034;78;21047;-90
2022/02/04 02:45:51;;;;;;;22.37;9.30;;;;;;;1.23;94.84;98765.00;4329122;80;21082;-91
2022/02/04 02:51:49;;;;;;;27.37;11.05;;;;;;;1.26;95.28;98769.75;4276625;80;21026;-91
2022/02/04 02:58:03;;;;;;;27.62;11.00;;;;;;;1.26;95.35;98775.15;4265078;80;21107;-90
2022/02/04 03:03:57;;;;;;;20.12;11.80;;;;;;;1.22;95.34;98763.40;4260937;80;21111;-90
2022/02/04 03:09:58;;;;;;;24.30;12.67;;;;;;;1.25;95.30;98765.45;4303686;78;22059;-91
2022/02/04 03:16:03;;;;;;;22.98;11.30;;;;;;;1.23;95.64;98774.44;4321031;80;21076;-90
2022/02/04 03:22:08;;;;;;;21.23;9.08;;;;;;;1.24;95.62;98762.53;4330283;80;21523;-91
2022/02/04 03:28:11;;;;;;;19.60;9.10;;;;;;;1.22;95.81;98766.09;4369376;79;21137;-91
2022/02/04 03:34:09;;;;;;;29.15;12.65;;;;;;;1.19;95.93;98751.13;4337603;78;21376;-91
2022/02/04 03:40:12;;;;;;;30.10;14.40;;;;;;;1.15;96.01;98745.58;4350705;80;21078;-90
2022/02/04 03:46:13;;;;;;;33.55;15.65;;;;;;;1.14;96.26;98743.20;4302239;79;21024;-91
2022/02/04 03:52:14;;;;;;;27.30;14.25;;;;;;;1.12;96.30;98736.78;4289415;79;21734;-92
2022/02/04 03:58:16;;;;;;;37.25;15.80;;;;;;;1.12;96.26;98742.72;4273060;80;172902;-91
2022/02/04 04:04:17;;;;;;;37.03;16.37;;;;;;;1.05;95.99;98751.86;4257570;82;21069;-90
2022/02/04 04:10:25;;;;;;;36.70;16.77;;;;;;;1.02;96.10;98751.92;4265477;82;21070;-90
2022/02/04 04:16:25;;;;;;;44.70;19.80;;;;;;;1.00;96.49;98738.54;4213797;81;21620;-91
2022/02/04 04:22:26;;;;;;;29.52;14.63;;;;;;;1.01;97.04;98724.74;4332478;81;22145;-91
2022/02/04 04:28:27;;;;;;;31.62;15.80;;;;;;;1.04;96.63;98716.56;4270612;82;21662;-91
2022/02/04 04:34:29;;;;;;;29.42;14.28;;;;;;;1.03;97.14;98702.86;4326350;80;21584;-91
2022/02/04 04:40:40;;;;;;;24.00;12.73;;;;;;;0.99;97.13;98703.24;4323669;80;21098;-91
2022/02/04 05:30:52;;;;;;;34.15;19.57;;;;;;;0.96;98.06;98695.80;4364294;80;21053;-91
2022/02/04 05:37:02;;;;;;;31.42;16.15;;;;;;;0.96;98.23;98690.41;4323129;78;21070;-91
2022/02/04 05:43:03;;;;;;;30.32;16.40;;;;;;;0.91;97.57;98690.02;4351568;80;21366;-91
2022/02/04 05:49:04;;;;;;;35.30;18.23;;;;;;;0.90;98.33;98690.34;4355821;80;21068;-91
2022/02/04 05:55:18;;;;;;;49.90;22.95;;;;;;;0.89;98.33;98690.12;4250309;81;21034;-91
2022/02/04 06:01:24;;;;;;;33.00;17.60;;;;;;;0.78;98.03;98686.16;4176733;82;21102;-92
2022/02/04 06:07:24;;;;;;;37.85;18.92;;;;;;;0.59;97.28;98696.46;4289211;81;21074;-91
2022/02/04 06:13:41;;;;;;;33.50;17.92;;;;;;;0.42;97.64;98702.65;4271780;82;21050;-91
2022/02/04 06:25:48;;;;;;;32.73;18.23;;;;;;;0.09;97.94;98710.91;4250328;81;21087;-91
2022/02/04 06:31:49;;;;;;;35.13;18.55;;;;;;;0.03;97.92;98699.24;4254567;81;21566;-91
2022/02/04 06:37:51;;;;;;;42.10;21.00;;;;;;;-0.01;98.20;98703.11;4338492;79;21057;-90
2022/02/04 06:43:52;;;;;;;32.13;17.65;;;;;;;0.02;98.39;98705.17;4336593;80;21500;-89
2022/02/04 06:49:54;;;;;;;38.83;19.65;;;;;;;0.04;98.49;98701.62;4345223;78;21074;-89
2022/02/04 06:55:56;;;;;;;32.55;18.67;;;;;;;0.09;98.67;98700.14;4337457;78;21066;-90
2022/02/04 07:01:57;;;;;;;29.32;17.42;;;;;;;0.21;99.08;98700.85;4353623;80;21018;-90
2022/02/04 07:08:08;;;;;;;40.67;23.73;;;;;;;0.30;98.96;98706.49;4374323;78;21062;-91
2022/02/04 07:14:21;;;;;;;41.43;23.53;;;;;;;0.40;99.13;98707.55;4366967;80;21074;-90
2022/02/04 07:20:13;;;;;;;46.00;23.18;;;;;;;0.40;99.13;98707.55;4368389;79;21536;-90
2022/02/04 07:26:15;;;;;;;47.38;24.90;;;;;;;0.53;99.47;98696.39;4336947;78;21015;-90
2022/02/04 07:44:53;;;;;;;65.97;33.02;;;;;;;0.75;99.41;98690.27;4358536;80;21531;-91
2022/02/04 07:50:55;;;;;;;113.70;57.80;;;;;;;0.92;100.00;98706.45;4340880;80;21010;-91
2022/02/04 07:56:56;;;;;;;85.80;46.80;;;;;;;1.86;100.00;98707.53;4336774;78;21027;-91
2022/02/04 08:03:05;;;;;;;67.30;37.35;;;;;;;2.36;100.00;98707.02;4340946;78;21037;-90
2022/02/04 08:09:14;;;;;;;69.32;36.98;;;;;;;2.61;100.00;98697.93;4348777;78;21066;-92
2022/02/04 08:21:32;;;;;;;52.13;30.32;;;;;;;3.12;100.00;98693.41;4354569;80;21061;-91
2022/02/04 08:46:28;;;;;;;23.15;12.90;;;;;;;3.63;100.00;98689.92;4248166;80;21034;-90
2022/02/04 08:58:42;;;;;;;17.07;9.48;;;;;;;4.05;100.00;98708.35;4349431;78;21030;-91
2022/02/04 09:04:43;;;;;;;21.60;10.70;;;;;;;4.20;99.94;98712.28;4332066;78;21048;-91
2022/02/04 09:10:46;;;;;;;54.88;27.22;;;;;;;4.44;100.00;98717.12;4247661;80;21695;-91
2022/02/04 09:22:57;;;;;;;68.25;31.60;;;;;;;4.59;98.73;98727.25;4198770;82;22469;-91
2022/02/04 09:28:58;;;;;;;78.52;41.23;;;;;;;4.62;98.97;98733.34;4340594;79;21053;-90
2022/02/04 09:35:00;;;;;;;69.58;33.23;;;;;;;4.69;98.76;98736.84;4322341;80;21066;-90
2022/02/04 09:41:02;;;;;;;61.10;31.57;;;;;;;4.76;98.59;98739.19;4297785;81;21059;-91
2022/02/04 09:47:03;;;;;;;55.00;26.73;;;;;;;4.84;98.58;98734.77;4230463;81;21133;-90
2022/02/04 10:18:15;;;;;;;42.55;20.60;;;;;;;5.73;96.52;98706.98;4353765;78;21073;-91
2022/02/04 10:24:15;;;;;;;41.18;20.30;;;;;;;5.97;95.96;98697.34;4351882;80;21079;-91
2022/02/04 10:30:19;;;;;;;54.05;26.10;;;;;;;6.13;95.19;98694.05;4165767;81;3618145;-91
2022/02/04 10:36:42;;;;;;;35.48;17.00;;;;;;;6.28;94.61;98689.14;4181374;82;21690;-91
2022/02/04 10:49:47;;;;;;;36.90;19.32;;;;;;;6.52;93.52;98677.24;4299258;80;21138;-91
2022/02/04 10:55:56;;;;;;;35.10;19.82;;;;;;;6.50;92.50;98675.45;4266757;80;21062;-90
2022/02/04 11:02:12;;;;;;;35.23;17.25;;;;;;;6.63;92.57;98664.66;4324382;80;21074;-91
2022/02/04 11:59:02;;;;;;;35.73;18.15;;;;;;;6.50;89.06;98643.41;4306518;80;21205;-91
2022/02/04 12:05:12;;;;;;;37.70;20.12;;;;;;;6.36;89.24;98650.10;4248876;82;21049;-91
2022/02/04 12:11:20;;;;;;;49.33;22.52;;;;;;;6.14;89.07;98645.33;4195788;82;21087;-91
2022/02/04 12:17:25;;;;;;;52.45;25.05;;;;;;;6.04;89.99;98649.17;4232835;82;21437;-91
2022/02/04 12:23:33;;;;;;;38.30;21.60;;;;;;;6.00;90.18;98645.00;4227546;82;21004;-91
2022/02/04 12:29:37;;;;;;;45.20;21.25;;;;;;;5.89;89.80;98641.81;4205944;82;21129;-91
2022/02/04 12:35:44;;;;;;;38.58;19.82;;;;;;;5.91;89.96;98639.53;4256335;80;21030;-91
2022/02/04 12:41:59;;;;;;;33.20;18.47;;;;;;;5.88;89.90;98636.97;4302115;80;21086;-91
2022/02/04 12:48:08;;;;;;;35.65;18.67;;;;;;;5.80;89.71;98635.19;4277325;80;21039;-92
2022/02/04 12:54:28;;;;;;;49.50;26.27;;;;;;;5.79;89.77;98631.47;4162067;83;21098;-92
2022/02/04 13:13:21;;;;;;;46.83;24.65;;;;;;;5.79;89.21;98633.62;4161248;83;21674;-92
2022/02/04 13:19:23;;;;;;;;;;;;;;;5.73;88.72;98625.50;4170115;83;21594;-92
2022/02/04 13:25:33;;;;;;;46.37;25.48;;;;;;;5.66;88.49;98618.55;4307764;80;20744;-91
2022/02/04 13:31:40;;;;;;;54.35;28.30;;;;;;;5.65;88.78;98612.91;4274694;80;21091;-90
2022/02/04 13:37:50;;;;;;;58.23;31.00;;;;;;;5.62;88.52;98616.30;4294156;80;21046;-90
2022/02/04 13:44:18;;;;;;;56.75;32.23;;;;;;;5.55;88.36;98605.84;4318537;80;21551;-90
2022/02/04 13:56:45;;;;;;;62.85;27.67;;;;;;;5.41;88.63;98596.00;4286696;80;21515;-90
2022/02/04 14:02:41;;;;;;;51.85;26.23;;;;;;;5.39;88.37;98599.63;4291863;81;21853;-90
2022/02/04 14:08:58;;;;;;;56.28;27.15;;;;;;;5.36;88.40;98590.83;4288484;80;21086;-91
2022/02/04 14:15:02;;;;;;;60.63;29.82;;;;;;;5.26;88.26;98592.13;4309852;80;21645;-92
2022/02/04 14:21:11;;;;;;;58.28;27.70;;;;;;;5.17;88.14;98593.47;4309708;80;21065;-92
2022/02/04 14:27:17;;;;;;;56.85;27.45;;;;;;;5.15;88.22;98589.74;4305085;80;21031;-91
2022/02/04 14:53:00;;;;;;;;;;;;;;;5.05;88.15;98602.45;4231518;82;21106;-91
2022/02/04 15:05:16;;;;;;;25.25;12.65;;;;;;;5.00;88.27;98595.12;4283702;80;21527;-91
2022/02/04 15:11:20;;;;;;;22.58;9.33;;;;;;;4.92;87.45;98598.81;4308922;80;21086;-92
2022/02/04 15:17:22;;;;;;;19.30;8.88;;;;;;;4.87;87.61;98603.12;4320675;80;21058;-92
2022/02/04 15:23:28;;;;;;;16.37;8.30;;;;;;;4.84;87.58;98610.01;4287425;80;21055;-91
2022/02/04 15:29:34;;;;;;;19.40;9.35;;;;;;;4.73;87.63;98600.80;4301380;80;21019;-91
2022/02/04 15:35:39;;;;;;;16.60;8.85;;;;;;;4.71;87.32;98607.15;4315877;80;21137;-91
2022/02/04 15:41:44;;;;;;;;;;;;;;;4.66;87.07;98612.25;4314167;80;21063;-91
2022/02/04 16:06:44;;;;;;;46.05;24.20;;;;;;;4.46;86.44;98615.15;4216375;82;21086;-91
2022/02/04 16:12:53;;;;;;;50.40;24.15;;;;;;;4.41;86.34;98607.25;4284757;82;21087;-91
2022/02/04 16:19:00;;;;;;;57.58;28.38;;;;;;;4.42;86.59;98606.11;4267400;82;21004;-92
2022/02/04 16:31:14;;;;;;;43.60;20.50;;;;;;;4.34;86.63;98601.05;4241991;81;21570;-91
2022/02/04 16:37:26;;;;;;;45.55;19.92;;;;;;;4.32;86.55;98601.95;4320862;80;21082;-90
2022/02/04 16:43:21;;;;;;;38.88;18.98;;;;;;;4.29;86.51;98586.97;4304352;80;21022;-91
2022/02/04 16:49:25;;;;;;;45.38;21.15;;;;;;;4.30;86.51;98583.13;4339208;80;21050;-91
2022/02/04 16:55:35;;;;;;;40.17;20.15;;;;;;;4.27;86.66;98585.16;4303281;80;21094;-91
2022/02/04 17:01:47;;;;;;;31.85;15.23;;;;;;;4.26;86.48;98578.18;4237599;82;21082;-91
2022/02/04 17:07:55;;;;;;;25.37;12.98;;;;;;;4.27;86.15;98572.41;4142846;83;21153;-91
2022/02/04 17:13:58;;;;;;;22.77;12.15;;;;;;;4.29;85.40;98585.62;4157494;83;21081;-91
2022/02/04 17:20:13;;;;;;;26.35;12.45;;;;;;;4.25;85.79;98573.88;4237380;82;21879;-91
2022/02/04 17:26:19;;;;;;;30.62;13.28;;;;;;;4.13;86.01;98555.75;4232847;82;20999;-90
2022/02/04 17:32:25;;;;;;;27.55;13.03;;;;;;;4.15;86.04;98567.02;4274924;82;21083;-91
2022/02/04 17:38:30;;;;;;;25.50;12.70;;;;;;;4.15;86.05;98568.95;4249414;82;21118;-91
2022/02/04 17:44:32;;;;;;;21.17;11.20;;;;;;;4.11;86.14;98566.13;4242399;81;21503;-91
2022/02/04 17:50:51;;;;;;;22.73;11.05;;;;;;;4.08;86.21;98572.23;4157453;82;10000492;-91
2022/02/04 18:03:29;;;;;;;27.87;12.65;;;;;;;4.05;86.06;98582.41;4215519;82;21584;-91
2022/02/04 18:09:18;;;;;;;23.95;11.90;;;;;;;4.01;86.12;98577.43;4243514;81;21123;-90
2022/02/04 18:15:22;;;;;;;28.38;12.58;;;;;;;3.99;86.32;98568.87;4257049;81;21969;-91
2022/02/04 18:21:26;;;;;;;33.70;12.33;;;;;;;3.97;86.51;98564.36;4229236;81;21131;-92
2022/02/04 18:27:38;;;;;;;28.50;11.57;;;;;;;3.94;86.42;98562.34;4226859;82;21076;-91
2022/02/04 18:33:40;;;;;;;28.47;12.78;;;;;;;3.93;86.36;98553.97;4254145;83;21047;-90
2022/02/04 18:46:11;;;;;;;24.72;11.70;;;;;;;3.94;86.19;98542.58;4236653;81;21126;-91
2022/02/04 18:52:35;;;;;;;24.52;12.15;;;;;;;3.98;85.22;98539.40;4265333;81;21082;-92
2022/02/04 18:58:37;;;;;;;23.37;10.80;;;;;;;4.05;85.05;98533.65;4166946;83;21397;-91
2022/02/04 19:05:03;;;;;;;27.42;11.85;;;;;;;4.10;84.48;98527.20;4246171;82;21047;-91
2022/02/04 19:11:05;;;;;;;29.37;12.07;;;;;;;4.11;84.41;98527.41;4258317;82;21099;-91
2022/02/04 19:17:24;;;;;;;24.63;11.63;;;;;;;4.09;84.64;98520.19;4262583;82;21092;-91
2022/02/04 19:23:24;;;;;;;27.87;11.22;;;;;;;4.09;84.70;98526.41;4256679;81;21026;-91
2022/02/04 19:29:25;;;;;;;29.87;12.35;;;;;;;4.10;84.27;98527.97;4196225;82;21054;-91
2022/02/04 19:35:29;;;;;;;22.77;11.80;;;;;;;4.10;84.29;98518.48;4158513;83;21118;-92
2022/02/04 19:41:33;;;;;;;25.35;11.90;;;;;;;4.14;83.82;98512.63;4321784;80;21994;-92
2022/02/04 19:47:52;;;;;;;20.60;10.50;;;;;;;4.18;83.45;98504.02;4316678;80;21552;-92
2022/02/04 20:25:37;;;;;;;36.03;16.73;;;;;;;4.15;83.35;98483.03;4296688;80;21070;-91
2022/02/04 20:31:46;;;;;;;32.05;16.05;;;;;;;4.14;83.08;98476.05;4302272;80;21078;-91
2022/02/04 20:37:52;;;;;;;29.12;13.78;;;;;;;4.11;83.33;98468.62;4342134;80;21071;-91
2022/02/04 20:44:00;;;;;;;25.48;12.43;;;;;;;4.15;83.06;98460.59;4239267;82;21053;-92
2022/02/04 20:50:06;;;;;;;21.48;11.63;;;;;;;4.13;83.21;98471.78;4293408;80;21019;-91
2022/02/04 20:56:09;;;;;;;18.92;8.83;;;;;;;4.17;83.03;98465.08;4296398;80;21046;-92
2022/02/04 21:02:18;;;;;;;23.52;10.75;;;;;;;4.23;82.24;98457.72;4353159;80;21089;-91
2022/02/04 21:09:00;;;;;;;23.57;10.88;;;;;;;4.25;82.51;98443.27;4315279;80;21678;-92
2022/02/04 21:20:59;;;;;;;20.25;10.80;;;;;;;4.28;82.51;98423.61;4323949;80;21087;-90
2022/02/04 21:27:06;;;;;;;21.33;9.88;;;;;;;4.33;82.31;98423.36;4285467;80;21066;-91
2022/02/04 21:33:23;;;;;;;18.75;9.93;;;;;;;4.33;82.62;98419.30;4348757;80;21074;-92
2022/02/04 21:39:19;;;;;;;19.92;9.30;;;;;;;4.36;82.67;98415.09;4340525;80;21094;-90
2022/02/04 21:45:22;;;;;;;17.65;9.10;;;;;;;4.40;81.73;98422.17;4239349;82;21040;-91
2022/02/04 21:51:24;;;;;;;19.45;8.78;;;;;;;4.41;82.31;98426.47;4301595;81;21073;-92
2022/02/04 21:57:28;;;;;;;19.07;10.08;;;;;;;4.41;82.06;98418.34;4313213;80;21073;-91
2022/02/04 22:03:37;;;;;;;15.23;7.35;;;;;;;4.44;81.48;98411.43;4289639;80;21511;-91
2022/02/04 22:15:59;;;;;;;22.15;11.08;;;;;;;4.44;81.79;98401.95;4319156;80;21598;-91
2022/02/04 22:22:12;;;;;;;17.80;9.03;;;;;;;4.45;81.61;98393.47;4322302;80;21039;-91
2022/02/04 22:28:05;;;;;;;20.02;9.05;;;;;;;4.52;80.39;98399.64;4284523;82;21070;-91
2022/02/04 22:34:21;;;;;;;20.35;9.70;;;;;;;4.52;80.72;98395.02;4328335;80;21122;-89
2022/02/04 22:40:34;;;;;;;21.07;10.55;;;;;;;4.53;80.36;98397.13;4335866;80;21590;-89
2022/02/04 22:58:38;;;;;;;18.70;8.68;;;;;;;4.42;81.61;98386.59;4350402;80;21059;-91
2022/02/04 23:04:41;;;;;;;24.52;9.33;;;;;;;4.44;81.61;98378.34;4336075;80;21062;-91
2022/02/04 23:10:44;;;;;;;28.40;10.68;;;;;;;4.52;81.30;98372.53;4319111;80;21106;-90
2022/02/04 23:17:02;;;;;;;21.20;9.98;;;;;;;4.57;81.25;98363.55;4306801;80;21026;-91
2022/02/04 23:23:09;;;;;;;17.90;6.97;;;;;;;4.63;81.30;98361.38;4291439;80;21102;-90
2022/02/04 23:54:23;;;;;;;19.42;9.65;;;;;;;4.58;81.90;98341.31;4255446;81;22183;-91
